UKHH/HRK METAR and TAF weather

Enter ICAO airport designator
Station Type Date Time Source
UKHH METAR 2018/12/10 08:30 UTC NOAA

UKHH 100830Z 14004MPS 2700 -RA BR OVC003 02/01 Q1007 R07/71//60 NOSIG


Station Type Date Time Source
UKHH Decoded METAR 2018/12/10 08:30 UTC NOAA

Kharkiv, Ukraine (UKHH) 49-58N 036-08E 155M
Dec 10, 2018 - 03:30 AM EST / 2018.12.10 0830 UTC
Wind: from the SE (140 degrees) at 9 MPH (8 KT):0
Visibility: 1 mile(s):0
Sky conditions: overcast
Weather: light rain; mist
Temperature: 35 F (2 C)
Windchill: 28 F (-2 C):1
Dew Point: 33 F (1 C)
Relative Humidity: 93%
Pressure (altimeter): 29.74 in. Hg (1007 hPa)
ob: UKHH 100830Z 14004MPS 2700 -RA BR OVC003 02/01 Q1007 R07/71//60 NOSIG
cycle: 8

Station Type Date Time Source
UKHH TAF 2018/11/09 15:24 UTC NOAA

TAF
AMD TAF
AMD UKHH 091519Z 0915/1024 06002MPS 1100 BR OVC002 TX01/0915Z TNM01/0924Z
TEMPO 0915/0918 0300 FG
BECMG 0918/0919 0300 FZFG OVC001 PROB40
TEMPO 0919/0924 -FZDZ


Example: see airport list